M. Seror (S)

M. Seror (S)

Statistiques 2019

  • Nb de partants : 62
  • Nb de victoires : 6
  • Nb de places : 21
  • Écart gagnant : 6
  • Réussite à la gagne : 10%
  • Réussite à la place : 34%
Musique : 16p 2h 5h 2h 2p 10p 1h Ah 13h 4h 7h 4h 3p 4h 3h 1h 9p 7h
ChevalDernière courseCoursesVictoiresR. à la gagnePlacésR. à la place
Mdracafeu 18/04/19 5 1 20% 3 60%
Caroubier 16/04/19 1 0 - 1 100%
Miss Balkania 16/04/19 18 10 56% 13 72%
Gracekeli du Seuil 16/04/19 3 0 - 2 67%
Star Vixa 15/04/19 9 0 - 3 33%
Always Somewhere 14/04/19 2 0 - 0 -
Dandy du Seuil 11/04/19 13 2 15% 4 31%
Susan la Belle 11/04/19 11 0 - 0 -
Futbolisto 11/04/19 26 2 8% 6 23%
Nolane de Vindecy 09/04/19 2 0 - 0 -
Orelia Dancing 06/04/19 2 0 - 0 -
Rikoboy 06/04/19 2 0 - 0 -
Marcelle 05/04/19 15 1 7% 8 53%
Gabrielle du Seuil 03/04/19 1 0 - 0 -
Golden Park 02/04/19 2 1 50% 1 50%
Roshana de Vindecy 31/03/19 4 0 - 0 -
Caradream 31/03/19 13 1 8% 5 38%
My Kalores 31/03/19 19 1 5% 7 37%
Voix du Soir 31/03/19 4 0 - 1 25%
Nuit Rose 27/03/19 2 0 - 0 -
Tanagan 27/03/19 18 2 11% 8 44%
Fandjo 23/03/19 4 1 25% 1 25%
Photo Choc 03/03/19 19 5 26% 9 47%
Djiguite 01/03/19 20 4 20% 9 45%
L'homme Presse 27/02/19 2 0 - 1 50%
Miralko 24/02/19 3 0 - 0 -
Eden du Seuil 14/02/19 9 1 11% 2 22%
Regba 14/02/19 5 0 - 0 -
Gold Diva 11/02/19 5 1 20% 1 20%
Champenoise 13/01/19 35 4 11% 6 17%
The Reader 06/01/19 42 5 12% 19 45%
Celebrita 01/01/19 12 4 33% 7 58%
Etoile du Seuil 17/12/18 10 2 20% 4 40%
Cocolegustachocho 17/12/18 21 1 5% 6 29%
Chichi One 10/12/18 11 1 9% 3 27%
Youmkim 07/12/18 8 0 - 2 25%
Iskandar 03/12/18 11 1 9% 5 45%
Magistador 17/11/18 11 3 27% 5 45%
Liquid Spirit 05/11/18 28 4 14% 8 29%
Summer Sweet 23/10/18 8 1 13% 2 25%
Da Lat 20/10/18 15 2 13% 5 33%
Espoir du Seuil 20/10/18 8 0 - 1 13%
Deal Baie 20/10/18 22 3 14% 8 36%
Doctor Lucas 16/10/18 1 0 - 0 -
The Golden Boy 14/10/18 22 3 14% 13 59%
No Risk For You 04/10/18 11 1 9% 5 45%
Fighter du Seuil 18/09/18 4 0 - 2 50%
Weetamoo 13/09/18 10 1 10% 3 30%
Cay Tune 23/08/18 23 2 9% 4 17%
Zappeur 04/08/18 4 0 - 2 50%